METAR AND TAF INFORMATION
METAR FOR ESSB
ADDS - METARS form results

(1646 UTC 15 July 2020)
Data provider http://aviationweather.gov/metar/data/
 
METAR text: ESSB 151620Z 14013KT CAVOK 19/09 Q1013
Conditions at: ESSB (STOCKHOLM/BROMMA, SE) observed 1620 UTC 15 July 2020
Temperature: 19.0°C (66°F)
Dewpoint: 9.0°C (48°F) [RH = 52%]
Pressure (altimeter): 29.91 inches Hg (1013.0 mb)
Winds: from the SE (140 degrees) at 15 MPH (13 knots; 6.7 m/s)
Visibility: 6 or more miles (10+ km)
Ceiling: ceiling and visibility are OK
Clouds: unknown
Weather: no significant weather observed at this time

METAR text: ESSB 151550Z 13012KT CAVOK 19/11 Q1013
Conditions at: ESSB (STOCKHOLM/BROMMA, SE) observed 1550 UTC 15 July 2020
Temperature: 19.0°C (66°F)
Dewpoint: 11.0°C (52°F) [RH = 60%]
Pressure (altimeter): 29.91 inches Hg (1013.0 mb)
Winds: from the SE (130 degrees) at 14 MPH (12 knots; 6.2 m/s)
Visibility: 6 or more miles (10+ km)
Ceiling: ceiling and visibility are OK
Clouds: unknown
Weather: no significant weather observed at this time

Forecast for: ESSB (STOCKHOLM/BROMMA, SE)
Text: TAF ESSB 151430Z 1515/1524 13010KT CAVOK
Forecast period: 1500 UTC 15 July 2020 to 0000 UTC 16 July 2020
Forecast type: FROM: standard forecast or significant change
Winds: from the SE (130 degrees) at 12 MPH (10 knots; 5.1 m/s)
Visibility: 6 or more miles 10+ km)
Ceiling: unknown
Clouds: missing
Weather: NSW  (no significant weather)

 AIRPORT MAP

 RUNWAY INFORMATION
Runway 12 Runway length 5472 ft Runway width 148 ft
Runway elevation 46 ft Runway displaced threshold 0 ft Runway heading 125
Runway 30 Runway length 5472 ft Runway width 148 ft
Runway elevation 42 ft Runway displaced threshold 0 ft Runway heading 305

 AIRPORT FREQUENCIES
Type AFIS Name AFIS Frequency 119.4 MHZ
Type APP Name APP Frequency 120.15 MHZ
Type ATIS Name ATIS Frequency 122.45 MHZ
Type GND Name GND Frequency 121.6 MHZ
Type TWR Name TWR Frequency 118.1 MHZ

 AIRPORT NEAR NAVIGATION AIDS
Type NDB Name Nacka Frequency 335 KHZ
Type NDB Name Bromma Frequency 394 KHZ
Type NDB Name Bromma Frequency 322 KHZ



Powered by Virtual Airlines Manager [v2.6.2]